Doran, Virginia
Current Conditions -  °F | °C
As of 1:55 PM on Tuesday 27 Jan 2015 (Local Time) from KJFZ Reporting Station
Clear Clear  
Wind Chill: 23°   Ceiling: Unl
Heat Index: 29°   Visibility: 10mi
Dew Point: 13°   Wind: 6mph
Humidity: 50%   Direction: 310°NW
Pressure: 29.84"   Gusts: NA
Location:  37.09°N, 81.83°W
Report Text: KJFZ 271855Z AUTO 31005KT 10SM CLR M01/M11 A2984 RMK AO2 T10151108
Loading
Personal Weather Stations






























Interactive Weather Map New forecast layout! Learn more

10-Day Weather Forecast

Advertisements
Track Severe Weather on mobile